Weather at Crs Alpes Heliport

Public forecast

Using degrees Celsius for public forecast. Weather courtesy of forecast.io.

Closest aviation weather report (METAR) to Crs Alpes Heliport

Closest report is Annecy-Haute-Savoie-Mont Blanc Airport, 19.9 nm (36.9 km) NW. Retrieved 2020/09/22 13:00 UTC (2 minutes ago):

LFLP 221300Z AUTO 21006KT 150V240 9999 FEW031 OVC120 22/15 Q1013 TEMPO 23015G25KT 3000 TSRA BKN030CB

Closest aviation forecast (TAF) to Crs Alpes Heliport

Closest forecast is Annecy-Haute-Savoie-Mont Blanc Airport, 19.9 nm (36.9 km) NW. Retrieved 2020/09/22 09:00 UTC (4 hours ago):

TAF LFLP 220800Z 2209/2309 20004KT 9999 FEW009 BKN090 TEMPO 2212/2220 4000 SHRA SCT035TCU PROB30 TEMPO 2212/2220 23015G25KT 3000 TSRA BKN030CB TEMPO 2220/2305 2500 SHRA BKN014 FEW025CB PROB40 2220/2224 TSRA TEMPO 2305/2308 4000 BR BKN008